createdAt,value
2023-03-13T00:01:12.597Z,10.23
2023-03-13T00:03:39.345Z,9.98
2023-03-13T00:06:06.635Z,9.02
2023-03-13T00:08:33.505Z,9.13
2023-03-13T00:11:04.374Z,9.20
2023-03-13T00:13:31.227Z,10.80
2023-03-13T00:16:06.739Z,9.82
2023-03-13T00:18:33.909Z,9.43
2023-03-13T00:21:02.816Z,8.85
2023-03-13T00:23:30.154Z,8.80
2023-03-13T00:26:05.679Z,8.95
2023-03-13T00:28:34.289Z,8.00
2023-03-13T00:31:06.246Z,7.15
2023-03-13T00:33:37.459Z,7.88
2023-03-13T00:36:10.124Z,7.18
2023-03-13T00:38:37.054Z,7.18
2023-03-13T00:41:16.378Z,7.25
2023-03-13T00:43:44.373Z,7.53
2023-03-13T00:46:12.250Z,7.05
2023-03-13T00:48:39.004Z,6.78
2023-03-13T00:51:06.596Z,6.10
2023-03-13T00:53:33.516Z,6.05
2023-03-13T00:56:03.433Z,6.82
2023-03-13T00:58:33.528Z,6.57
2023-03-13T01:01:31.020Z,6.20
2023-03-13T01:04:01.160Z,5.38
2023-03-13T01:06:30.540Z,5.72
2023-03-13T01:08:57.689Z,5.38
2023-03-13T01:11:27.205Z,6.60
2023-03-13T01:14:02.178Z,5.82
2023-03-13T01:16:31.105Z,5.28
2023-03-13T01:19:01.852Z,5.60
2023-03-13T01:21:29.180Z,5.05
2023-03-13T01:23:56.870Z,4.97
2023-03-13T01:26:24.769Z,5.55
2023-03-13T01:28:51.837Z,5.60
2023-03-13T01:31:30.381Z,5.53
2023-03-13T01:33:58.892Z,6.05
2023-03-13T01:36:26.948Z,5.40
2023-03-13T01:38:55.944Z,5.13
2023-03-13T01:41:23.263Z,5.63
2023-03-13T01:43:50.711Z,5.70
2023-03-13T01:46:21.182Z,4.95
2023-03-13T01:49:07.393Z,4.57
2023-03-13T01:51:49.483Z,5.18
2023-03-13T01:54:39.912Z,4.93
2023-03-13T01:57:27.199Z,5.07
2023-03-13T02:00:00.384Z,4.88
2023-03-13T02:02:27.996Z,4.95
2023-03-13T02:05:01.297Z,5.15
2023-03-13T02:07:33.177Z,4.72
2023-03-13T02:10:01.001Z,5.65
2023-03-13T02:12:33.800Z,5.25
2023-03-13T02:15:04.709Z,5.15
2023-03-13T02:17:34.412Z,5.10
2023-03-13T02:20:01.158Z,5.15
2023-03-13T02:22:56.242Z,5.47
2023-03-13T02:25:25.810Z,4.70
2023-03-13T02:28:04.989Z,4.85
2023-03-13T02:30:32.477Z,5.13
2023-03-13T02:33:00.728Z,5.13
2023-03-13T02:35:28.089Z,4.68
2023-03-13T02:37:58.862Z,5.15
2023-03-13T02:40:33.264Z,5.07
2023-03-13T02:43:03.070Z,4.35
2023-03-13T02:45:29.827Z,4.55
2023-03-13T02:47:56.553Z,5.05
2023-03-13T02:50:24.229Z,4.63
2023-03-13T02:53:07.805Z,4.72
2023-03-13T02:55:54.629Z,4.50
2023-03-13T02:58:24.777Z,4.75
2023-03-13T03:00:53.111Z,4.60
2023-03-13T03:03:19.918Z,4.65
2023-03-13T03:05:46.615Z,3.95
2023-03-13T03:08:13.369Z,4.18
2023-03-13T03:10:40.129Z,4.38
2023-03-13T03:13:07.427Z,4.32
2023-03-13T03:15:34.212Z,3.80
2023-03-13T03:18:00.929Z,4.30
2023-03-13T03:20:27.664Z,3.88
2023-03-13T03:22:54.449Z,3.35
2023-03-13T03:25:21.192Z,3.63
2023-03-13T03:27:47.936Z,3.75
2023-03-13T03:30:15.117Z,4.32
2023-03-13T03:32:41.902Z,4.25
2023-03-13T03:35:08.868Z,3.60
2023-03-13T03:37:35.665Z,3.88
2023-03-13T03:40:02.370Z,3.60
2023-03-13T03:42:30.079Z,3.45
2023-03-13T03:44:56.843Z,3.47
2023-03-13T03:47:23.637Z,3.60
2023-03-13T03:49:50.395Z,3.05
2023-03-13T03:52:17.314Z,3.58
2023-03-13T03:54:44.069Z,3.67
2023-03-13T03:57:10.908Z,3.95
2023-03-13T03:59:37.685Z,2.95
2023-03-13T04:02:04.445Z,3.50
2023-03-13T04:04:31.186Z,2.83
2023-03-13T04:06:57.903Z,2.95
2023-03-13T04:09:24.631Z,3.10
2023-03-13T04:11:51.327Z,3.20
2023-03-13T04:14:18.152Z,3.55
2023-03-13T04:16:44.950Z,3.38
2023-03-13T04:19:11.796Z,3.38
2023-03-13T04:21:39.642Z,3.35
2023-03-13T04:24:06.732Z,3.55
2023-03-13T04:26:33.467Z,3.47
2023-03-13T04:29:00.231Z,3.58
2023-03-13T04:31:26.965Z,3.42
2023-03-13T04:33:53.676Z,3.47
2023-03-13T04:36:20.453Z,3.97
2023-03-13T04:38:47.237Z,4.13
2023-03-13T04:41:14.059Z,3.92
2023-03-13T04:43:40.794Z,4.03
2023-03-13T04:46:07.589Z,3.75
2023-03-13T04:48:34.338Z,4.43
2023-03-13T04:51:01.091Z,4.15
2023-03-13T04:53:27.803Z,4.88
2023-03-13T04:55:54.921Z,4.35
2023-03-13T04:58:21.646Z,4.40
2023-03-13T05:00:48.351Z,4.38
2023-03-13T05:03:15.126Z,3.85
2023-03-13T05:05:41.843Z,3.70
2023-03-13T05:08:10.764Z,4.28
2023-03-13T05:10:37.488Z,3.88
2023-03-13T05:13:04.379Z,3.50
2023-03-13T05:15:31.208Z,3.60
2023-03-13T05:17:58.053Z,3.95
2023-03-13T05:20:24.844Z,3.58
2023-03-13T05:22:51.677Z,3.88
2023-03-13T05:25:18.479Z,4.35
2023-03-13T05:27:45.762Z,3.60
2023-03-13T05:30:12.913Z,3.58
2023-03-13T05:32:39.649Z,3.60
2023-03-13T05:35:06.630Z,3.50
2023-03-13T05:37:33.437Z,3.47
2023-03-13T05:40:00.223Z,3.45
2023-03-13T05:42:27.073Z,3.05
2023-03-13T05:44:53.881Z,2.78
2023-03-13T05:47:20.677Z,2.97
2023-03-13T05:49:47.439Z,2.67
2023-03-13T05:52:14.140Z,2.53
2023-03-13T05:54:41.319Z,3.22
2023-03-13T05:57:08.953Z,2.65
2023-03-13T05:59:36.575Z,3.92
2023-03-13T06:02:03.357Z,2.45
2023-03-13T06:04:30.298Z,2.90
2023-03-13T06:06:57.229Z,3.42
2023-03-13T06:09:23.975Z,2.53
2023-03-13T06:11:50.724Z,2.30
2023-03-13T06:14:17.444Z,2.53
2023-03-13T06:16:44.176Z,2.60
2023-03-13T06:19:11.737Z,3.13
2023-03-13T06:21:39.042Z,2.10
2023-03-13T06:24:06.040Z,2.58
2023-03-13T06:26:32.778Z,2.45
2023-03-13T06:28:59.665Z,2.65
2023-03-13T06:31:26.417Z,2.35
2023-03-13T06:33:54.551Z,2.28
2023-03-13T06:36:25.333Z,3.00
2023-03-13T06:38:52.180Z,2.30
2023-03-13T06:41:19.293Z,2.05
2023-03-13T06:43:45.983Z,2.20
2023-03-13T06:46:19.809Z,2.47
2023-03-13T06:48:46.870Z,2.42
2023-03-13T06:51:14.876Z,2.70
2023-03-13T06:53:42.128Z,2.22
2023-03-13T06:56:09.804Z,2.38
2023-03-13T06:58:36.795Z,2.40
2023-03-13T07:01:12.131Z,2.53
2023-03-13T07:03:41.279Z,2.13
2023-03-13T07:06:09.127Z,2.20
2023-03-13T07:08:36.901Z,2.10
2023-03-13T07:11:06.358Z,2.20
2023-03-13T07:13:33.350Z,2.60
2023-03-13T07:16:06.679Z,2.10
2023-03-13T07:18:34.094Z,2.10
2023-03-13T07:21:05.157Z,2.30
2023-03-13T07:23:33.675Z,1.67
2023-03-13T07:26:26.838Z,2.17
2023-03-13T07:28:54.184Z,2.13
2023-03-13T07:31:23.850Z,2.22
2023-03-13T07:33:54.333Z,2.03
2023-03-13T07:36:21.207Z,2.05
2023-03-13T07:38:49.222Z,2.10
2023-03-13T07:41:16.385Z,2.00
2023-03-13T07:43:43.198Z,1.90
2023-03-13T07:46:12.808Z,2.00
2023-03-13T07:48:41.952Z,1.80
2023-03-13T07:51:16.457Z,2.03
2023-03-13T07:53:44.919Z,2.15
2023-03-13T07:56:13.541Z,2.65
2023-03-13T07:58:41.355Z,1.77
2023-03-13T08:01:10.115Z,2.33
2023-03-13T08:03:37.853Z,2.40
2023-03-13T08:06:14.342Z,2.10
2023-03-13T08:08:41.432Z,2.03
2023-03-13T08:11:10.831Z,1.92
2023-03-13T08:13:38.614Z,2.20
2023-03-13T08:16:10.199Z,2.03
2023-03-13T08:18:39.384Z,2.00
2023-03-13T08:21:08.641Z,1.67
2023-03-13T08:23:36.241Z,1.83
2023-03-13T08:26:10.437Z,1.92
2023-03-13T08:28:38.652Z,1.75
2023-03-13T08:31:11.145Z,2.20
2023-03-13T08:33:39.678Z,1.80
2023-03-13T08:36:14.086Z,1.83
2023-03-13T08:38:46.327Z,1.85
2023-03-13T08:41:15.697Z,1.85
2023-03-13T08:43:42.962Z,1.55
2023-03-13T08:46:09.777Z,1.60
2023-03-13T08:48:36.611Z,1.60
2023-03-13T08:51:09.518Z,1.77
2023-03-13T08:53:39.970Z,1.45
2023-03-13T08:56:08.389Z,1.90
2023-03-13T08:58:35.891Z,1.40
2023-03-13T09:01:14.516Z,1.80
2023-03-13T09:03:42.377Z,1.45
2023-03-13T09:06:10.935Z,1.15
2023-03-13T09:08:39.547Z,1.48
2023-03-13T09:11:12.397Z,1.50
2023-03-13T09:13:43.536Z,1.77
2023-03-13T09:16:13.523Z,1.60
2023-03-13T09:18:41.132Z,1.60
2023-03-13T09:21:11.815Z,1.50
2023-03-13T09:23:39.550Z,1.55
2023-03-13T09:26:06.989Z,1.63
2023-03-13T09:28:34.582Z,1.50
2023-03-13T09:31:08.903Z,1.65
2023-03-13T09:33:36.049Z,1.73
2023-03-13T09:36:03.538Z,1.35
2023-03-13T09:38:30.351Z,1.15
2023-03-13T09:41:11.611Z,1.40
2023-03-13T09:43:51.366Z,1.55
2023-03-13T09:46:36.865Z,1.30
2023-03-13T09:49:10.029Z,1.65
2023-03-13T09:51:43.535Z,1.35
2023-03-13T09:57:16.515Z,1.30
2023-03-13T10:00:12.821Z,1.60
2023-03-13T10:02:40.226Z,1.83
2023-03-13T10:05:20.344Z,2.08
2023-03-13T10:07:48.648Z,1.75
2023-03-13T10:10:18.399Z,1.60
2023-03-13T10:12:51.441Z,1.45
2023-03-13T10:15:33.882Z,1.80
2023-03-13T10:18:13.974Z,1.80
2023-03-13T10:20:42.034Z,1.80
2023-03-13T10:23:21.621Z,1.63
2023-03-13T10:25:48.706Z,1.88
2023-03-13T10:28:20.138Z,1.73
2023-03-13T10:30:52.166Z,1.92
2023-03-13T10:33:23.712Z,2.75
2023-03-13T10:36:02.623Z,1.67
2023-03-13T10:38:32.927Z,1.98
2023-03-13T10:41:17.360Z,1.70
2023-03-13T10:44:14.569Z,1.77
2023-03-13T10:46:44.004Z,1.65
2023-03-13T10:49:15.831Z,1.63
2023-03-13T10:51:50.747Z,1.42
2023-03-13T10:54:31.022Z,1.60
2023-03-13T10:57:23.257Z,1.90
2023-03-13T10:59:51.641Z,1.70
2023-03-13T11:02:38.819Z,1.98
2023-03-13T11:05:24.333Z,1.83
2023-03-13T11:07:52.655Z,1.83
2023-03-13T11:10:22.247Z,2.40
2023-03-13T11:12:54.253Z,2.03
2023-03-13T11:15:35.992Z,1.98
2023-03-13T11:18:10.626Z,2.17
2023-03-13T11:20:39.984Z,1.40
2023-03-13T11:23:32.884Z,2.05
2023-03-13T11:26:13.664Z,1.77
2023-03-13T11:28:50.148Z,2.05
2023-03-13T11:31:39.155Z,1.98
2023-03-13T11:34:23.878Z,1.95
2023-03-13T11:37:02.507Z,1.40
2023-03-13T11:40:07.014Z,2.03
2023-03-13T11:45:36.858Z,1.40
2023-03-13T11:48:40.112Z,1.20
2023-03-13T11:51:28.826Z,1.40
2023-03-13T11:54:05.291Z,1.23
2023-03-13T11:56:41.690Z,1.30
2023-03-13T11:59:08.358Z,1.50
2023-03-13T12:01:41.098Z,1.20
2023-03-13T12:04:28.004Z,1.05
2023-03-13T12:07:16.509Z,1.13
2023-03-13T12:09:51.751Z,1.40
2023-03-13T12:12:47.784Z,1.52
2023-03-13T12:15:15.044Z,1.38
2023-03-13T12:17:50.594Z,1.50
2023-03-13T12:20:37.929Z,1.45
2023-03-13T12:23:18.774Z,1.58
2023-03-13T12:25:52.417Z,1.10
2023-03-13T12:28:38.195Z,1.40
2023-03-13T12:31:21.969Z,1.48
2023-03-13T12:33:55.040Z,1.55
2023-03-13T12:36:51.441Z,1.52
2023-03-13T12:39:34.953Z,2.10
2023-03-13T12:42:39.940Z,1.90
2023-03-13T12:45:12.971Z,1.55
2023-03-13T12:47:54.198Z,1.50
2023-03-13T12:50:47.247Z,1.40
2023-03-13T12:53:42.568Z,1.40
2023-03-13T12:56:12.415Z,1.38
2023-03-13T12:58:45.320Z,1.10
2023-03-13T13:01:42.449Z,1.50
2023-03-13T13:04:19.958Z,1.48
2023-03-13T13:07:02.692Z,1.45
2023-03-13T13:09:41.251Z,1.57
2023-03-13T13:12:25.101Z,1.50
2023-03-13T13:14:52.049Z,1.60
2023-03-13T13:17:23.199Z,1.60
2023-03-13T13:19:50.424Z,1.70
2023-03-13T13:22:38.539Z,1.63
2023-03-13T13:25:11.068Z,1.60
2023-03-13T13:27:37.739Z,1.80
2023-03-13T13:30:19.689Z,1.45
2023-03-13T13:32:51.200Z,1.80
2023-03-13T13:35:28.423Z,1.52
2023-03-13T13:38:18.547Z,1.25
2023-03-13T13:41:11.874Z,1.30
2023-03-13T13:43:39.648Z,1.40
2023-03-13T13:46:29.229Z,1.27
2023-03-13T13:49:05.639Z,1.13
2023-03-13T13:51:53.518Z,1.50
2023-03-13T13:54:42.112Z,1.23
2023-03-13T13:57:18.610Z,1.42
2023-03-13T14:00:15.640Z,1.65
2023-03-13T14:02:52.142Z,1.58
2023-03-13T14:05:23.825Z,1.55
2023-03-13T14:07:56.567Z,1.33
2023-03-13T14:10:47.207Z,1.70
2023-03-13T14:13:21.986Z,1.58
2023-03-13T14:15:52.857Z,1.30
2023-03-13T14:18:28.477Z,1.48
2023-03-13T14:21:01.004Z,1.45
2023-03-13T14:23:42.199Z,1.40
2023-03-13T14:26:20.615Z,1.20
2023-03-13T14:28:56.837Z,1.30
2023-03-13T14:31:31.208Z,1.42
2023-03-13T14:34:00.339Z,1.40
2023-03-13T14:36:27.810Z,1.35
2023-03-13T14:39:00.044Z,1.08
2023-03-13T14:41:29.435Z,1.50
2023-03-13T14:44:06.250Z,1.67
2023-03-13T14:46:35.713Z,1.20
2023-03-13T14:49:08.541Z,1.30
2023-03-13T14:51:39.376Z,1.48
2023-03-13T14:54:23.428Z,1.58
2023-03-13T14:57:02.470Z,1.55
2023-03-13T14:59:29.548Z,1.40
2023-03-13T15:02:31.964Z,1.77
2023-03-13T15:05:07.280Z,1.90
2023-03-13T15:07:42.183Z,1.63
2023-03-13T15:10:31.407Z,1.70
2023-03-13T15:12:58.418Z,1.98
2023-03-13T15:15:25.631Z,1.67
2023-03-13T15:17:52.368Z,1.88
2023-03-13T15:20:19.242Z,1.80
2023-03-13T15:22:46.499Z,1.58
2023-03-13T15:25:19.561Z,1.40
2023-03-13T15:27:47.279Z,1.20
2023-03-13T15:30:18.868Z,2.00
2023-03-13T15:32:46.894Z,1.55
2023-03-13T15:35:29.797Z,2.03
2023-03-13T15:37:57.908Z,1.80
2023-03-13T15:40:25.600Z,1.90
2023-03-13T15:42:53.226Z,1.77
2023-03-13T15:45:21.720Z,1.73
2023-03-13T15:47:48.843Z,1.80
2023-03-13T15:50:18.888Z,2.55
2023-03-13T15:52:46.010Z,2.00
2023-03-13T15:55:12.805Z,1.77
2023-03-13T15:57:46.998Z,1.55
2023-03-13T16:00:25.997Z,1.75
2023-03-13T16:02:52.892Z,1.48
2023-03-13T16:05:20.033Z,1.70
2023-03-13T16:07:47.299Z,1.58
2023-03-13T16:10:26.056Z,1.33
2023-03-13T16:12:54.159Z,1.50
2023-03-13T16:15:21.554Z,1.58
2023-03-13T16:17:48.275Z,1.40
2023-03-13T16:20:21.581Z,1.48
2023-03-13T16:25:15.704Z,1.60
2023-03-13T16:27:42.581Z,1.33
2023-03-13T16:30:27.622Z,1.63
2023-03-13T16:32:54.648Z,1.75
2023-03-13T16:35:21.961Z,1.65
2023-03-13T16:37:50.730Z,1.65
2023-03-13T16:40:24.519Z,1.60
2023-03-13T16:42:51.839Z,1.90
2023-03-13T16:45:18.735Z,1.55
2023-03-13T16:47:45.881Z,1.48
2023-03-13T16:50:29.120Z,1.50
2023-03-13T16:52:55.911Z,2.15
2023-03-13T16:55:28.697Z,1.98
2023-03-13T16:57:56.918Z,1.95
2023-03-13T17:00:25.819Z,1.85
2023-03-13T17:02:53.041Z,1.83
2023-03-13T17:05:20.035Z,2.03
2023-03-13T17:07:49.272Z,1.90
2023-03-13T17:10:28.631Z,1.70
2023-03-13T17:12:55.737Z,1.92
2023-03-13T17:15:23.461Z,2.28
2023-03-13T17:17:51.996Z,2.45
2023-03-13T17:20:24.919Z,2.88
2023-03-13T17:22:51.966Z,2.75
2023-03-13T17:25:18.867Z,2.47
2023-03-13T17:27:47.489Z,2.92
2023-03-13T17:30:23.538Z,3.35
2023-03-13T17:32:50.741Z,3.65
2023-03-13T17:35:18.464Z,4.30
2023-03-13T17:37:45.574Z,4.50
2023-03-13T17:40:15.765Z,3.60
2023-03-13T17:42:42.605Z,3.10
2023-03-13T17:45:10.589Z,3.20
2023-03-13T17:47:37.602Z,2.92
2023-03-13T17:50:27.375Z,2.50
2023-03-13T17:52:54.687Z,4.80
2023-03-13T17:55:22.714Z,8.07
2023-03-13T17:57:49.564Z,11.27
2023-03-13T18:00:31.850Z,7.22
2023-03-13T18:02:59.337Z,11.63
2023-03-13T18:05:27.074Z,10.93
2023-03-13T18:07:57.049Z,12.63
2023-03-13T18:10:27.204Z,10.18
2023-03-13T18:12:54.670Z,5.00
2023-03-13T18:15:23.456Z,3.03
2023-03-13T18:17:51.371Z,2.92
2023-03-13T18:20:24.021Z,2.50
2023-03-13T18:22:50.863Z,2.53
2023-03-13T18:25:17.738Z,2.70
2023-03-13T18:27:44.641Z,2.17
2023-03-13T18:30:22.124Z,2.15
2023-03-13T18:32:49.413Z,2.22
2023-03-13T18:35:16.895Z,2.05
2023-03-13T18:37:46.420Z,1.77
2023-03-13T18:40:25.136Z,2.53
2023-03-13T18:42:51.957Z,2.55
2023-03-13T18:45:24.658Z,1.88
2023-03-13T18:47:51.486Z,1.98
2023-03-13T18:50:26.137Z,2.03
2023-03-13T18:52:55.388Z,2.10
2023-03-13T18:55:25.907Z,1.80
2023-03-13T18:57:52.719Z,2.08
2023-03-13T19:00:24.492Z,2.92
2023-03-13T19:02:51.823Z,3.20
2023-03-13T19:05:19.275Z,3.60
2023-03-13T19:07:46.959Z,3.05
2023-03-13T19:10:26.608Z,2.70
2023-03-13T19:12:54.969Z,2.28
2023-03-13T19:15:24.478Z,2.28
2023-03-13T19:17:51.803Z,2.30
2023-03-13T19:20:20.852Z,2.05
2023-03-13T19:22:48.041Z,2.20
2023-03-13T19:25:17.185Z,2.65
2023-03-13T19:27:44.395Z,4.55
2023-03-13T19:30:22.527Z,4.13
2023-03-13T19:32:50.117Z,4.10
2023-03-13T19:35:18.836Z,3.25
2023-03-13T19:37:46.115Z,1.98
2023-03-13T19:40:21.745Z,1.70
2023-03-13T19:42:48.557Z,3.72
2023-03-13T19:45:17.332Z,3.88
2023-03-13T19:47:44.621Z,5.55
2023-03-13T19:50:23.423Z,3.30
2023-03-13T19:52:50.318Z,2.70
2023-03-13T19:55:17.285Z,2.90
2023-03-13T19:57:44.215Z,3.05
2023-03-13T20:00:22.312Z,2.00
2023-03-13T20:02:49.789Z,2.38
2023-03-13T20:05:16.768Z,2.45
2023-03-13T20:07:43.613Z,2.30
2023-03-13T20:10:10.927Z,2.72
2023-03-13T20:12:37.715Z,2.08
2023-03-13T20:15:05.170Z,4.40
2023-03-13T20:17:32.510Z,5.65
2023-03-13T20:19:59.245Z,11.02
2023-03-13T20:22:26.073Z,5.65
2023-03-13T20:24:55.741Z,4.13
2023-03-13T20:27:22.488Z,3.03
2023-03-13T20:29:49.303Z,2.30
2023-03-13T20:32:16.323Z,3.78
2023-03-13T20:34:43.088Z,4.18
2023-03-13T20:37:09.879Z,3.35
2023-03-13T20:39:36.644Z,3.00
2023-03-13T20:42:03.535Z,2.22
2023-03-13T20:44:30.288Z,2.30
2023-03-13T20:46:57.008Z,1.80
2023-03-13T20:49:24.013Z,1.80
2023-03-13T20:51:50.721Z,1.30
2023-03-13T20:54:17.482Z,1.50
2023-03-13T20:56:44.215Z,1.73
2023-03-13T20:59:10.913Z,1.75
2023-03-13T21:01:38.224Z,1.67
2023-03-13T21:04:05.476Z,1.58
2023-03-13T21:06:32.569Z,1.52
2023-03-13T21:08:59.320Z,1.52
2023-03-13T21:11:26.060Z,1.95
2023-03-13T21:13:52.751Z,1.48
2023-03-13T21:16:20.001Z,1.80
2023-03-13T21:18:47.411Z,1.48
2023-03-13T21:21:18.898Z,2.40
2023-03-13T21:23:46.390Z,1.30
2023-03-13T21:26:15.916Z,1.50
2023-03-13T21:28:42.704Z,2.00
2023-03-13T21:31:17.217Z,2.10
2023-03-13T21:33:45.847Z,2.50
2023-03-13T21:36:14.717Z,2.13
2023-03-13T21:38:41.981Z,2.17
2023-03-13T21:41:14.271Z,2.17
2023-03-13T21:43:42.060Z,2.20
2023-03-13T21:46:10.738Z,2.30
2023-03-13T21:48:41.820Z,2.25
2023-03-13T21:51:09.892Z,2.40
2023-03-13T21:53:37.457Z,2.30
2023-03-13T21:56:05.162Z,2.38
2023-03-13T21:58:31.903Z,2.28
2023-03-13T22:00:59.325Z,2.17
2023-03-13T22:03:29.185Z,2.15
2023-03-13T22:05:56.075Z,2.33
2023-03-13T22:08:22.862Z,2.20
2023-03-13T22:10:51.194Z,2.70
2023-03-13T22:13:18.335Z,2.15
2023-03-13T22:15:46.461Z,1.98
2023-03-13T22:18:14.931Z,2.50
2023-03-13T22:20:42.447Z,2.22
2023-03-13T22:23:11.104Z,1.90
2023-03-13T22:25:40.239Z,2.65
2023-03-13T22:28:07.071Z,2.28
2023-03-13T22:30:34.007Z,2.35
2023-03-13T22:33:00.763Z,2.45
2023-03-13T22:35:27.537Z,2.17
2023-03-13T22:37:54.306Z,2.03
2023-03-13T22:40:21.087Z,1.67
2023-03-13T22:42:48.276Z,1.92
2023-03-13T22:45:15.968Z,1.65
2023-03-13T22:47:42.709Z,1.40
2023-03-13T22:50:11.015Z,1.90
2023-03-13T22:52:38.504Z,1.63
2023-03-13T22:55:05.504Z,1.75
2023-03-13T22:57:32.362Z,1.30
2023-03-13T23:00:00.123Z,1.20
2023-03-13T23:02:28.273Z,1.20
2023-03-13T23:04:57.842Z,1.40
2023-03-13T23:07:28.336Z,0.90
2023-03-13T23:09:55.930Z,1.05
2023-03-13T23:12:24.260Z,1.23
2023-03-13T23:14:55.689Z,1.42
2023-03-13T23:17:22.465Z,1.17
2023-03-13T23:19:49.308Z,0.90
2023-03-13T23:22:18.035Z,1.20
2023-03-13T23:24:45.058Z,1.02
2023-03-13T23:27:11.994Z,0.98
2023-03-13T23:29:39.270Z,0.70
2023-03-13T23:32:06.276Z,0.90
2023-03-13T23:34:35.307Z,0.80
2023-03-13T23:37:02.016Z,0.77
2023-03-13T23:39:29.170Z,0.70
2023-03-13T23:41:56.232Z,0.90
2023-03-13T23:44:23.042Z,1.00
2023-03-13T23:46:49.773Z,0.90
2023-03-13T23:49:16.503Z,1.15
2023-03-13T23:51:43.188Z,1.08
2023-03-13T23:54:09.884Z,0.90
2023-03-13T23:56:36.564Z,0.90
2023-03-13T23:59:03.436Z,1.15
